sensor_id;sensor_type;location;lat;lon;timestamp;pressure;altitude;pressure_sealevel;temperature;humidity
42945;BME280;28584;42.636;23.294;2023-07-28T00:01:13;162022.09;;;13.02;100.00
42945;BME280;28584;42.636;23.294;2023-07-28T00:03:39;162007.34;;;12.96;99.64
42945;BME280;28584;42.636;23.294;2023-07-28T00:06:04;161984.59;;;12.88;99.59
42945;BME280;28584;42.636;23.294;2023-07-28T00:08:30;161980.56;;;12.86;100.00
42945;BME280;28584;42.636;23.294;2023-07-28T00:10:55;161944.41;;;12.73;100.00
42945;BME280;28584;42.636;23.294;2023-07-28T00:13:20;161932.34;;;12.68;100.00
42945;BME280;28584;42.636;23.294;2023-07-28T00:15:46;161905.63;;;12.58;100.00
42945;BME280;28584;42.636;23.294;2023-07-28T00:18:11;161944.41;;;12.73;97.33
42945;BME280;28584;42.636;23.294;2023-07-28T00:20:37;161972.53;;;12.83;96.92
42945;BME280;28584;42.636;23.294;2023-07-28T00:23:02;161963.13;;;12.80;94.92
42945;BME280;28584;42.636;23.294;2023-07-28T00:25:28;161957.81;;;12.78;99.58
42945;BME280;28584;42.636;23.294;2023-07-28T00:27:53;161901.63;;;12.57;100.00
42945;BME280;28584;42.636;23.294;2023-07-28T00:30:18;161861.44;;;12.42;100.00
42945;BME280;28584;42.636;23.294;2023-07-28T00:32:44;161848.09;;;12.37;100.00
42945;BME280;28584;42.636;23.294;2023-07-28T00:35:09;161781.22;;;12.12;100.00
42945;BME280;28584;42.636;23.294;2023-07-28T00:37:34;161722.34;;;11.90;100.00
42945;BME280;28584;42.636;23.294;2023-07-28T00:40:00;161688.91;;;11.77;100.00
42945;BME280;28584;42.636;23.294;2023-07-28T00:42:25;161639.38;;;11.59;100.00
42945;BME280;28584;42.636;23.294;2023-07-28T00:44:51;161599.28;;;11.44;100.00
42945;BME280;28584;42.636;23.294;2023-07-28T00:47:16;161572.53;;;11.34;100.00
42945;BME280;28584;42.636;23.294;2023-07-28T00:49:42;161540.50;;;11.22;100.00
42945;BME280;28584;42.636;23.294;2023-07-28T00:52:07;161553.84;;;11.27;100.00
42945;BME280;28584;42.636;23.294;2023-07-28T00:54:33;161587.25;;;11.39;100.00
42945;BME280;28584;42.636;23.294;2023-07-28T00:56:59;161569.88;;;11.33;100.00
42945;BME280;28584;42.636;23.294;2023-07-28T00:59:25;161537.78;;;11.20;100.00
42945;BME280;28584;42.636;23.294;2023-07-28T01:01:52;161532.47;;;11.18;100.00
42945;BME280;28584;42.636;23.294;2023-07-28T01:04:17;161511.03;;;11.10;100.00
42945;BME280;28584;42.636;23.294;2023-07-28T01:07:06;161508.38;;;11.09;100.00
42945;BME280;28584;42.636;23.294;2023-07-28T01:09:40;161460.28;;;10.91;100.00
42945;BME280;28584;42.636;23.294;2023-07-28T01:12:08;161465.66;;;10.93;100.00
42945;BME280;28584;42.636;23.294;2023-07-28T01:14:36;161497.69;;;11.05;100.00
42945;BME280;28584;42.636;23.294;2023-07-28T01:17:02;161543.16;;;11.23;100.00
42945;BME280;28584;42.636;23.294;2023-07-28T01:19:28;161551.19;;;11.26;100.00
42945;BME280;28584;42.636;23.294;2023-07-28T01:22:45;161521.78;;;11.14;100.00
42945;BME280;28584;42.636;23.294;2023-07-28T01:25:06;161472.31;;;10.96;100.00
42945;BME280;28584;42.636;23.294;2023-07-28T01:27:38;161452.25;;;10.88;100.00
42945;BME280;28584;42.636;23.294;2023-07-28T01:30:08;161433.56;;;10.81;100.00
42945;BME280;28584;42.636;23.294;2023-07-28T01:32:35;161414.84;;;10.74;100.00
42945;BME280;28584;42.636;23.294;2023-07-28T01:35:02;161426.88;;;10.79;100.00
42945;BME280;28584;42.636;23.294;2023-07-28T01:37:28;161410.84;;;10.73;100.00
42945;BME280;28584;42.636;23.294;2023-07-28T01:39:53;161380.09;;;10.61;100.00
42945;BME280;28584;42.636;23.294;2023-07-28T01:42:19;161357.38;;;10.53;100.00
42945;BME280;28584;42.636;23.294;2023-07-28T01:44:45;161306.66;;;10.34;100.00
42945;BME280;28584;42.636;23.294;2023-07-28T01:47:10;161307.94;;;10.34;100.00
42945;BME280;28584;42.636;23.294;2023-07-28T01:49:36;161307.94;;;10.34;100.00
42945;BME280;28584;42.636;23.294;2023-07-28T01:52:02;161302.63;;;10.32;100.00
42945;BME280;28584;42.636;23.294;2023-07-28T01:54:27;161266.53;;;10.19;100.00
42945;BME280;28584;42.636;23.294;2023-07-28T01:56:52;161277.28;;;10.23;100.00
42945;BME280;28584;42.636;23.294;2023-07-28T01:59:18;161283.94;;;10.25;100.00
42945;BME280;28584;42.636;23.294;2023-07-28T02:01:44;161259.88;;;10.16;100.00
42945;BME280;28584;42.636;23.294;2023-07-28T02:04:09;161235.88;;;10.07;100.00
42945;BME280;28584;42.636;23.294;2023-07-28T02:06:35;161237.16;;;10.08;100.00
42945;BME280;28584;42.636;23.294;2023-07-28T02:09:00;161219.78;;;10.01;100.00
42945;BME280;28584;42.636;23.294;2023-07-28T02:11:26;161198.44;;;9.93;100.00
42945;BME280;28584;42.636;23.294;2023-07-28T02:13:51;161165.00;;;9.81;100.00
42945;BME280;28584;42.636;23.294;2023-07-28T02:16:17;161153.03;;;9.76;100.00
42945;BME280;28584;42.636;23.294;2023-07-28T02:18:42;161142.38;;;9.72;100.00
42945;BME280;28584;42.636;23.294;2023-07-28T02:21:10;161120.97;;;9.64;100.00
42945;BME280;28584;42.636;23.294;2023-07-28T02:23:36;161110.28;;;9.60;100.00
42945;BME280;28584;42.636;23.294;2023-07-28T02:26:01;161088.94;;;9.52;100.00
42945;BME280;28584;42.636;23.294;2023-07-28T02:28:27;161034.19;;;9.32;100.00
42945;BME280;28584;42.636;23.294;2023-07-28T02:30:52;161070.25;;;9.45;100.00
42945;BME280;28584;42.636;23.294;2023-07-28T02:33:18;161052.88;;;9.39;100.00
42945;BME280;28584;42.636;23.294;2023-07-28T02:35:43;161047.56;;;9.37;100.00
42945;BME280;28584;42.636;23.294;2023-07-28T02:38:08;161035.56;;;9.32;100.00
42945;BME280;28584;42.636;23.294;2023-07-28T02:40:34;161018.22;;;9.26;100.00
42945;BME280;28584;42.636;23.294;2023-07-28T02:42:59;161014.22;;;9.24;100.00
42945;BME280;28584;42.636;23.294;2023-07-28T02:45:25;161018.22;;;9.26;100.00
42945;BME280;28584;42.636;23.294;2023-07-28T02:47:51;161054.22;;;9.39;100.00
42945;BME280;28584;42.636;23.294;2023-07-28T02:50:16;161040.91;;;9.34;100.00
42945;BME280;28584;42.636;23.294;2023-07-28T02:52:42;161035.56;;;9.32;100.00
42945;BME280;28584;42.636;23.294;2023-07-28T02:55:07;161030.19;;;9.30;100.00
42945;BME280;28584;42.636;23.294;2023-07-28T02:57:33;161028.88;;;9.30;100.00
42945;BME280;28584;42.636;23.294;2023-07-28T02:59:58;161032.91;;;9.31;100.00
42945;BME280;28584;42.636;23.294;2023-07-28T03:02:24;161020.88;;;9.27;100.00
42945;BME280;28584;42.636;23.294;2023-07-28T03:04:49;161035.56;;;9.32;100.00
42945;BME280;28584;42.636;23.294;2023-07-28T03:07:15;161040.91;;;9.34;100.00
42945;BME280;28584;42.636;23.294;2023-07-28T03:09:40;161038.22;;;9.33;100.00
42945;BME280;28584;42.636;23.294;2023-07-28T03:12:06;161032.91;;;9.31;100.00
42945;BME280;28584;42.636;23.294;2023-07-28T03:14:32;161019.53;;;9.26;100.00
42945;BME280;28584;42.636;23.294;2023-07-28T03:16:57;161054.22;;;9.39;100.00
42945;BME280;28584;42.636;23.294;2023-07-28T03:19:23;161082.28;;;9.50;100.00
42945;BME280;28584;42.636;23.294;2023-07-28T03:21:48;161111.66;;;9.61;100.00
42945;BME280;28584;42.636;23.294;2023-07-28T03:24:14;161120.97;;;9.64;100.00
42945;BME280;28584;42.636;23.294;2023-07-28T03:26:39;161161.06;;;9.79;100.00
42945;BME280;28584;42.636;23.294;2023-07-28T03:29:04;161262.59;;;10.17;100.00
42945;BME280;28584;42.636;23.294;2023-07-28T03:31:30;161328.00;;;10.42;100.00
42945;BME280;28584;42.636;23.294;2023-07-28T03:33:55;161398.81;;;10.68;100.00
42945;BME280;28584;42.636;23.294;2023-07-28T03:36:21;161481.66;;;10.99;100.00
42945;BME280;28584;42.636;23.294;2023-07-28T03:38:46;161569.88;;;11.33;100.00
42945;BME280;28584;42.636;23.294;2023-07-28T03:41:12;161660.84;;;11.67;100.00
42945;BME280;28584;42.636;23.294;2023-07-28T03:43:38;161735.75;;;11.95;100.00
42945;BME280;28584;42.636;23.294;2023-07-28T03:46:04;161819.97;;;12.26;100.00
42945;BME280;28584;42.636;23.294;2023-07-28T03:48:29;161932.34;;;12.68;100.00
42945;BME280;28584;42.636;23.294;2023-07-28T03:50:54;162031.44;;;13.05;100.00
42945;BME280;28584;42.636;23.294;2023-07-28T03:53:20;162099.72;;;13.31;100.00
42945;BME280;28584;42.636;23.294;2023-07-28T03:55:45;162109.13;;;13.34;100.00
42945;BME280;28584;42.636;23.294;2023-07-28T03:58:11;162150.63;;;13.50;100.00
42945;BME280;28584;42.636;23.294;2023-07-28T04:00:36;162164.00;;;13.55;100.00
42945;BME280;28584;42.636;23.294;2023-07-28T04:03:02;162186.75;;;13.63;100.00
42945;BME280;28584;42.636;23.294;2023-07-28T04:05:27;162273.81;;;13.96;100.00
42945;BME280;28584;42.636;23.294;2023-07-28T04:07:52;162297.88;;;14.05;100.00
42945;BME280;28584;42.636;23.294;2023-07-28T04:10:18;162362.25;;;14.29;100.00
42945;BME280;28584;42.636;23.294;2023-07-28T04:12:43;162318.00;;;14.13;100.00
42945;BME280;28584;42.636;23.294;2023-07-28T04:15:09;162469.47;;;14.69;100.00
42945;BME280;28584;42.636;23.294;2023-07-28T04:17:35;162590.09;;;15.14;100.00
42945;BME280;28584;42.636;23.294;2023-07-28T04:20:00;162718.88;;;15.62;100.00
42945;BME280;28584;42.636;23.294;2023-07-28T04:22:26;162838.22;;;16.07;100.00
42945;BME280;28584;42.636;23.294;2023-07-28T04:24:51;162950.97;;;16.49;87.46
42945;BME280;28584;42.636;23.294;2023-07-28T04:27:17;163048.91;;;16.86;82.66
42945;BME280;28584;42.636;23.294;2023-07-28T04:29:43;163142.88;;;17.21;75.98
42945;BME280;28584;42.636;23.294;2023-07-28T04:32:08;163202.03;;;17.43;72.57
42945;BME280;28584;42.636;23.294;2023-07-28T04:34:34;163234.25;;;17.55;70.00
42945;BME280;28584;42.636;23.294;2023-07-28T04:36:59;163251.75;;;17.61;69.10
42945;BME280;28584;42.636;23.294;2023-07-28T04:39:25;163175.13;;;17.33;73.26
42945;BME280;28584;42.636;23.294;2023-07-28T04:41:50;163297.41;;;17.78;69.58
42945;BME280;28584;42.636;23.294;2023-07-28T04:44:17;163392.72;;;18.14;67.89
42945;BME280;28584;42.636;23.294;2023-07-28T04:46:42;163223.50;;;17.51;68.57
42945;BME280;28584;42.636;23.294;2023-07-28T04:49:08;163438.41;;;18.31;64.96
42945;BME280;28584;42.636;23.294;2023-07-28T04:51:33;163508.38;;;18.57;62.81
42945;BME280;28584;42.636;23.294;2023-07-28T04:53:58;163576.91;;;18.82;60.23
42945;BME280;28584;42.636;23.294;2023-07-28T04:56:24;163556.75;;;18.75;60.31
42945;BME280;28584;42.636;23.294;2023-07-28T04:58:49;163660.25;;;19.14;58.84
42945;BME280;28584;42.636;23.294;2023-07-28T05:01:15;163723.47;;;19.37;57.89
42945;BME280;28584;42.636;23.294;2023-07-28T05:03:41;163727.50;;;19.39;57.78
42945;BME280;28584;42.636;23.294;2023-07-28T05:06:06;163637.41;;;19.05;56.96
42945;BME280;28584;42.636;23.294;2023-07-28T05:08:32;163740.94;;;19.44;56.82
42945;BME280;28584;42.636;23.294;2023-07-28T05:10:57;163689.81;;;19.25;57.26
42945;BME280;28584;42.636;23.294;2023-07-28T05:13:23;163732.88;;;19.41;57.32
42945;BME280;28584;42.636;23.294;2023-07-28T05:15:48;163806.84;;;19.68;55.79
42945;BME280;28584;42.636;23.294;2023-07-28T05:18:13;163629.31;;;19.02;58.30
42945;BME280;28584;42.636;23.294;2023-07-28T05:20:39;163825.69;;;19.75;56.51
42945;BME280;28584;42.636;23.294;2023-07-28T05:23:04;163910.38;;;20.07;54.39
42945;BME280;28584;42.636;23.294;2023-07-28T05:25:30;163521.78;;;18.62;56.38
42945;BME280;28584;42.636;23.294;2023-07-28T05:27:55;163828.34;;;19.76;55.44
42945;BME280;28584;42.636;23.294;2023-07-28T05:30:21;163917.16;;;20.09;54.55
42945;BME280;28584;42.636;23.294;2023-07-28T05:32:47;163933.31;;;20.15;53.95
42945;BME280;28584;42.636;23.294;2023-07-28T05:35:13;163568.84;;;18.79;55.79
42945;BME280;28584;42.636;23.294;2023-07-28T05:37:39;163073.09;;;16.95;61.68
42945;BME280;28584;42.636;23.294;2023-07-28T05:40:05;163567.47;;;18.79;60.75
42945;BME280;28584;42.636;23.294;2023-07-28T05:42:31;163851.22;;;19.85;56.92
42945;BME280;28584;42.636;23.294;2023-07-28T05:44:56;163980.41;;;20.33;55.01
42945;BME280;28584;42.636;23.294;2023-07-28T05:47:22;164082.69;;;20.71;53.96
42945;BME280;28584;42.636;23.294;2023-07-28T05:49:47;163831.03;;;19.77;55.51
42945;BME280;28584;42.636;23.294;2023-07-28T05:52:12;163961.59;;;20.26;55.27
42945;BME280;28584;42.636;23.294;2023-07-28T05:54:38;164089.41;;;20.73;53.39
42945;BME280;28584;42.636;23.294;2023-07-28T05:57:04;164151.38;;;20.96;52.28
42945;BME280;28584;42.636;23.294;2023-07-28T05:59:29;164167.56;;;21.02;52.27
42945;BME280;28584;42.636;23.294;2023-07-28T06:01:55;163981.78;;;20.33;52.25
42945;BME280;28584;42.636;23.294;2023-07-28T06:04:20;164016.72;;;20.46;52.63
42945;BME280;28584;42.636;23.294;2023-07-28T06:06:47;164104.22;;;20.79;51.33
42945;BME280;28584;42.636;23.294;2023-07-28T06:09:12;164264.47;;;21.38;50.13
42945;BME280;28584;42.636;23.294;2023-07-28T06:11:37;164341.22;;;21.67;49.68
42945;BME280;28584;42.636;23.294;2023-07-28T06:14:03;164404.56;;;21.91;48.73
42945;BME280;28584;42.636;23.294;2023-07-28T06:16:28;164488.06;;;22.22;47.94
42945;BME280;28584;42.636;23.294;2023-07-28T06:18:54;164449.00;;;22.07;48.93
42945;BME280;28584;42.636;23.294;2023-07-28T06:21:19;164502.88;;;22.27;48.68
42945;BME280;28584;42.636;23.294;2023-07-28T06:23:44;164598.63;;;22.63;47.56
42945;BME280;28584;42.636;23.294;2023-07-28T06:26:10;164687.53;;;22.96;47.06
42945;BME280;28584;42.636;23.294;2023-07-28T06:28:36;164815.69;;;23.43;46.43
42945;BME280;28584;42.636;23.294;2023-07-28T06:31:02;164843.97;;;23.54;45.04
42945;BME280;28584;42.636;23.294;2023-07-28T06:33:28;164775.19;;;23.28;44.97
42945;BME280;28584;42.636;23.294;2023-07-28T06:35:54;164787.34;;;23.33;45.63
42945;BME280;28584;42.636;23.294;2023-07-28T06:38:20;164803.53;;;23.39;45.77
42945;BME280;28584;42.636;23.294;2023-07-28T06:40:45;164942.38;;;23.90;45.10
42945;BME280;28584;42.636;23.294;2023-07-28T06:43:11;164924.88;;;23.84;45.01
42945;BME280;28584;42.636;23.294;2023-07-28T06:45:36;165038.22;;;24.26;43.96
42945;BME280;28584;42.636;23.294;2023-07-28T06:48:02;164709.13;;;23.04;44.50
42945;BME280;28584;42.636;23.294;2023-07-28T06:50:27;164760.38;;;23.23;45.09
42945;BME280;28584;42.636;23.294;2023-07-28T06:52:53;164676.75;;;22.92;45.93
42945;BME280;28584;42.636;23.294;2023-07-28T06:55:18;164870.94;;;23.64;44.22
42945;BME280;28584;42.636;23.294;2023-07-28T06:57:46;164954.59;;;23.95;43.34
42945;BME280;28584;42.636;23.294;2023-07-28T07:00:11;165059.78;;;24.34;44.06
42945;BME280;28584;42.636;23.294;2023-07-28T07:02:37;165247.41;;;25.04;41.39
42945;BME280;28584;42.636;23.294;2023-07-28T07:05:03;165405.38;;;25.62;40.65
42945;BME280;28584;42.636;23.294;2023-07-28T07:07:29;165463.44;;;25.84;39.96
42945;BME280;28584;42.636;23.294;2023-07-28T07:09:54;165490.44;;;25.94;39.89
42945;BME280;28584;42.636;23.294;2023-07-28T07:12:20;165121.84;;;24.57;41.78
42945;BME280;28584;42.636;23.294;2023-07-28T07:14:46;164630.94;;;22.75;44.86
42945;BME280;28584;42.636;23.294;2023-07-28T07:17:12;164636.34;;;22.77;45.54
42945;BME280;28584;42.636;23.294;2023-07-28T07:19:37;165117.81;;;24.56;43.40
42945;BME280;28584;42.636;23.294;2023-07-28T07:22:03;165360.84;;;25.46;41.79
42945;BME280;28584;42.636;23.294;2023-07-28T07:24:28;165462.06;;;25.83;40.73
42945;BME280;28584;42.636;23.294;2023-07-28T07:26:54;165436.44;;;25.74;40.30
42945;BME280;28584;42.636;23.294;2023-07-28T07:29:19;165404.03;;;25.62;40.33
42945;BME280;28584;42.636;23.294;2023-07-28T07:31:44;165586.38;;;26.29;39.77
42945;BME280;28584;42.636;23.294;2023-07-28T07:34:10;165606.63;;;26.37;40.07
42945;BME280;28584;42.636;23.294;2023-07-28T07:36:35;165067.88;;;24.37;42.53
42945;BME280;28584;42.636;23.294;2023-07-28T07:39:01;164931.63;;;23.86;43.79
42945;BME280;28584;42.636;23.294;2023-07-28T07:41:26;165077.34;;;24.41;43.38
42945;BME280;28584;42.636;23.294;2023-07-28T07:43:53;164682.16;;;22.94;44.88
42945;BME280;28584;42.636;23.294;2023-07-28T07:46:19;165140.81;;;24.64;43.49
42945;BME280;28584;42.636;23.294;2023-07-28T07:48:45;165480.97;;;25.90;41.35
42945;BME280;28584;42.636;23.294;2023-07-28T07:51:11;165774.19;;;26.99;39.78
42945;BME280;28584;42.636;23.294;2023-07-28T07:53:36;165753.97;;;26.92;39.17
42945;BME280;28584;42.636;23.294;2023-07-28T07:56:03;165459.38;;;25.82;39.91
42945;BME280;28584;42.636;23.294;2023-07-28T07:58:28;165625.53;;;26.44;38.95
42945;BME280;28584;42.636;23.294;2023-07-28T08:00:55;165635.00;;;26.47;39.16
42945;BME280;28584;42.636;23.294;2023-07-28T08:03:20;165790.41;;;27.05;38.79
42945;BME280;28584;42.636;23.294;2023-07-28T08:05:46;165912.09;;;27.50;37.79
42945;BME280;28584;42.636;23.294;2023-07-28T08:08:11;166037.84;;;27.97;36.78
42945;BME280;28584;42.636;23.294;2023-07-28T08:10:39;166056.78;;;28.04;37.19
42945;BME280;28584;42.636;23.294;2023-07-28T08:13:04;166032.44;;;27.95;36.75
42945;BME280;28584;42.636;23.294;2023-07-28T08:15:30;166146.00;;;28.37;36.73
42945;BME280;28584;42.636;23.294;2023-07-28T08:17:55;166246.16;;;28.74;35.92
42945;BME280;28584;42.636;23.294;2023-07-28T08:20:20;166286.75;;;28.89;35.41
42945;BME280;28584;42.636;23.294;2023-07-28T08:22:46;166262.41;;;28.80;35.55
42945;BME280;28584;42.636;23.294;2023-07-28T08:25:11;165768.81;;;26.97;37.79
42945;BME280;28584;42.636;23.294;2023-07-28T08:27:37;166029.75;;;27.94;36.74
42945;BME280;28584;42.636;23.294;2023-07-28T08:30:03;166082.47;;;28.13;35.98
42945;BME280;28584;42.636;23.294;2023-07-28T08:32:28;165681.00;;;26.65;38.10
42945;BME280;28584;42.636;23.294;2023-07-28T08:34:54;166010.81;;;27.87;37.25
42945;BME280;28584;42.636;23.294;2023-07-28T08:37:19;166258.34;;;28.78;35.63
42945;BME280;28584;42.636;23.294;2023-07-28T08:39:45;166196.09;;;28.55;35.39
42945;BME280;28584;42.636;23.294;2023-07-28T08:42:10;166247.53;;;28.74;34.63
42945;BME280;28584;42.636;23.294;2023-07-28T08:44:36;166367.94;;;29.19;34.73
42945;BME280;28584;42.636;23.294;2023-07-28T08:47:03;166419.38;;;29.38;33.97
42945;BME280;28584;42.636;23.294;2023-07-28T08:49:30;166277.28;;;28.85;34.72
42945;BME280;28584;42.636;23.294;2023-07-28T08:51:59;166028.38;;;27.93;35.50
42945;BME280;28584;42.636;23.294;2023-07-28T08:54:25;166227.22;;;28.67;34.75
42945;BME280;28584;42.636;23.294;2023-07-28T08:56:51;166300.25;;;28.94;34.44
42945;BME280;28584;42.636;23.294;2023-07-28T08:59:23;166327.38;;;29.04;34.76
42945;BME280;28584;42.636;23.294;2023-07-28T09:01:52;166381.50;;;29.24;34.02
42945;BME280;28584;42.636;23.294;2023-07-28T09:04:20;166468.09;;;29.56;33.68
42945;BME280;28584;42.636;23.294;2023-07-28T09:06:46;166501.97;;;29.69;33.87
42945;BME280;28584;42.636;23.294;2023-07-28T09:09:14;166646.84;;;30.22;32.91
42945;BME280;28584;42.636;23.294;2023-07-28T09:11:49;166751.13;;;30.61;32.55
42945;BME280;28584;42.636;23.294;2023-07-28T09:14:17;166820.19;;;30.86;31.85
42945;BME280;28584;42.636;23.294;2023-07-28T09:16:44;166855.41;;;30.99;32.22
42945;BME280;28584;42.636;23.294;2023-07-28T09:19:10;166900.09;;;31.16;31.94
42945;BME280;28584;42.636;23.294;2023-07-28T09:21:37;166324.69;;;29.03;33.68
42945;BME280;28584;42.636;23.294;2023-07-28T09:24:10;166037.84;;;27.97;35.83
42945;BME280;28584;42.636;23.294;2023-07-28T09:26:40;166497.91;;;29.67;33.33
42945;BME280;28584;42.636;23.294;2023-07-28T09:29:20;166422.09;;;29.39;34.38
42945;BME280;28584;42.636;23.294;2023-07-28T09:31:48;166156.88;;;28.41;35.77
42945;BME280;28584;42.636;23.294;2023-07-28T09:34:25;166224.53;;;28.66;34.26
42945;BME280;28584;42.636;23.294;2023-07-28T09:36:56;166159.56;;;28.42;34.79
42945;BME280;28584;42.636;23.294;2023-07-28T09:39:22;166059.47;;;28.05;35.34
42945;BME280;28584;42.636;23.294;2023-07-28T09:41:48;166538.50;;;29.82;33.60
42945;BME280;28584;42.636;23.294;2023-07-28T09:44:14;166489.78;;;29.64;33.39
42945;BME280;28584;42.636;23.294;2023-07-28T09:46:51;166416.66;;;29.37;33.94
42945;BME280;28584;42.636;23.294;2023-07-28T09:49:37;166611.59;;;30.09;32.33
42945;BME280;28584;42.636;23.294;2023-07-28T09:52:05;166156.88;;;28.41;34.86
42945;BME280;28584;42.636;23.294;2023-07-28T09:54:38;166386.88;;;29.26;33.49
42945;BME280;28584;42.636;23.294;2023-07-28T09:57:04;166362.56;;;29.17;33.34
42945;BME280;28584;42.636;23.294;2023-07-28T09:59:39;166950.25;;;31.34;32.50
42945;BME280;28584;42.636;23.294;2023-07-28T10:02:05;166940.81;;;31.31;31.43
42945;BME280;28584;42.636;23.294;2023-07-28T10:04:31;166636.03;;;30.18;32.37
42945;BME280;28584;42.636;23.294;2023-07-28T10:06:57;166879.81;;;31.08;32.23
42945;BME280;28584;42.636;23.294;2023-07-28T10:09:27;167397.66;;;33.00;29.94
42945;BME280;28584;42.636;23.294;2023-07-28T10:11:54;167631.00;;;33.86;28.43
42945;BME280;28584;42.636;23.294;2023-07-28T10:14:30;167709.66;;;34.15;27.62
42945;BME280;28584;42.636;23.294;2023-07-28T10:17:00;166636.03;;;30.18;31.79
42945;BME280;28584;42.636;23.294;2023-07-28T10:19:36;167202.34;;;32.28;29.92
42945;BME280;28584;42.636;23.294;2023-07-28T10:22:07;167210.47;;;32.31;29.69
42945;BME280;28584;42.636;23.294;2023-07-28T10:24:55;167003.09;;;31.54;30.56
42945;BME280;28584;42.636;23.294;2023-07-28T10:27:33;166305.69;;;28.96;33.29
42945;BME280;28584;42.636;23.294;2023-07-28T10:30:01;166524.97;;;29.77;32.88
42945;BME280;28584;42.636;23.294;2023-07-28T10:32:49;166566.94;;;29.93;32.24
42945;BME280;28584;42.636;23.294;2023-07-28T10:37:46;166533.09;;;29.80;33.08
42945;BME280;28584;42.636;23.294;2023-07-28T10:42:57;166484.41;;;29.62;32.37
42945;BME280;28584;42.636;23.294;2023-07-28T10:45:25;166798.53;;;30.78;27.55
42945;BME280;28584;42.636;23.294;2023-07-28T10:47:55;166159.56;;;28.42;32.30
42945;BME280;28584;42.636;23.294;2023-07-28T10:50:23;166389.56;;;29.27;30.36
42945;BME280;28584;42.636;23.294;2023-07-28T10:52:49;166238.03;;;28.71;30.24
42945;BME280;28584;42.636;23.294;2023-07-28T10:55:16;166435.59;;;29.44;29.51
42945;BME280;28584;42.636;23.294;2023-07-28T10:57:44;166511.47;;;29.72;29.24
42945;BME280;28584;42.636;23.294;2023-07-28T11:00:11;166645.47;;;30.22;29.24
42945;BME280;28584;42.636;23.294;2023-07-28T11:02:44;166308.38;;;28.97;30.50
42945;BME280;28584;42.636;23.294;2023-07-28T11:05:33;166229.91;;;28.68;30.13
42945;BME280;28584;42.636;23.294;2023-07-28T11:07:59;165933.69;;;27.58;31.60
42945;BME280;28584;42.636;23.294;2023-07-28T11:10:28;166094.63;;;28.18;31.57
42945;BME280;28584;42.636;23.294;2023-07-28T11:12:56;165701.22;;;26.72;33.23
42945;BME280;28584;42.636;23.294;2023-07-28T11:15:23;165553.94;;;26.17;34.04
42945;BME280;28584;42.636;23.294;2023-07-28T11:17:50;165570.16;;;26.23;34.60
42945;BME280;28584;42.636;23.294;2023-07-28T11:20:17;165962.09;;;27.69;32.75
42945;BME280;28584;42.636;23.294;2023-07-28T11:22:51;165879.69;;;27.38;33.57
42945;BME280;28584;42.636;23.294;2023-07-28T11:25:17;165952.63;;;27.65;32.87
42945;BME280;28584;42.636;23.294;2023-07-28T11:27:42;166070.28;;;28.09;32.44
42945;BME280;28584;42.636;23.294;2023-07-28T11:30:08;166174.47;;;28.47;31.55
42945;BME280;28584;42.636;23.294;2023-07-28T11:32:37;166056.78;;;28.04;32.35
42945;BME280;28584;42.636;23.294;2023-07-28T11:35:07;165999.97;;;27.83;32.28
42945;BME280;28584;42.636;23.294;2023-07-28T11:37:34;165766.06;;;26.96;32.65
42945;BME280;28584;42.636;23.294;2023-07-28T11:40:05;166096.00;;;28.18;32.00
42945;BME280;28584;42.636;23.294;2023-07-28T11:42:41;166210.97;;;28.61;31.41
42945;BME280;28584;42.636;23.294;2023-07-28T11:45:10;166202.91;;;28.58;32.83
42945;BME280;28584;42.636;23.294;2023-07-28T11:47:36;166519.53;;;29.75;30.15
42945;BME280;28584;42.636;23.294;2023-07-28T11:50:02;166495.22;;;29.66;30.64
42945;BME280;28584;42.636;23.294;2023-07-28T11:52:32;166194.78;;;28.55;31.62
42945;BME280;28584;42.636;23.294;2023-07-28T11:55:01;165872.88;;;27.36;33.14
42945;BME280;28584;42.636;23.294;2023-07-28T11:57:29;165943.19;;;27.62;32.94
42945;BME280;28584;42.636;23.294;2023-07-28T12:00:00;165924.25;;;27.55;33.69
42945;BME280;28584;42.636;23.294;2023-07-28T12:02:27;165912.09;;;27.50;34.41
42945;BME280;28584;42.636;23.294;2023-07-28T12:04:54;165779.63;;;27.01;34.13
42945;BME280;28584;42.636;23.294;2023-07-28T12:07:27;165926.97;;;27.56;34.63
42945;BME280;28584;42.636;23.294;2023-07-28T12:09:53;165794.47;;;27.07;35.35
42945;BME280;28584;42.636;23.294;2023-07-28T12:12:27;165678.25;;;26.64;35.19
42945;BME280;28584;42.636;23.294;2023-07-28T12:14:59;165660.66;;;26.57;34.66
42945;BME280;28584;42.636;23.294;2023-07-28T12:17:29;165586.38;;;26.29;35.61
42945;BME280;28584;42.636;23.294;2023-07-28T12:20:02;165508.03;;;26.00;35.89
42945;BME280;28584;42.636;23.294;2023-07-28T12:22:44;165599.88;;;26.34;36.57
42945;BME280;28584;42.636;23.294;2023-07-28T12:25:10;165616.09;;;26.40;36.36
42945;BME280;28584;42.636;23.294;2023-07-28T12:27:37;165690.41;;;26.68;36.98
42945;BME280;28584;42.636;23.294;2023-07-28T12:30:03;165626.91;;;26.44;37.58
42945;BME280;28584;42.636;23.294;2023-07-28T12:32:29;165679.63;;;26.64;36.76
42945;BME280;28584;42.636;23.294;2023-07-28T12:34:55;165695.84;;;26.70;37.78
42945;BME280;28584;42.636;23.294;2023-07-28T12:37:20;165729.63;;;26.83;37.28
42945;BME280;28584;42.636;23.294;2023-07-28T12:39:47;165683.69;;;26.66;37.01
42945;BME280;28584;42.636;23.294;2023-07-28T12:42:13;165621.47;;;26.42;37.55